sensor_id;sensor_type;location;lat;lon;timestamp;P1;durP1;ratioP1;P2;durP2;ratioP2
26906;SDS011;14472;56.880;16.658;2022-10-20T00:00:57;0.83;;;0.83;;
26906;SDS011;14472;56.880;16.658;2022-10-20T00:03:24;1.47;;;0.73;;
26906;SDS011;14472;56.880;16.658;2022-10-20T00:05:50;0.60;;;0.60;;
26906;SDS011;14472;56.880;16.658;2022-10-20T00:08:16;0.80;;;0.80;;
26906;SDS011;14472;56.880;16.658;2022-10-20T00:10:42;0.80;;;0.80;;
26906;SDS011;14472;56.880;16.658;2022-10-20T00:13:17;0.73;;;0.70;;
26906;SDS011;14472;56.880;16.658;2022-10-20T00:15:53;0.70;;;0.70;;
26906;SDS011;14472;56.880;16.658;2022-10-20T00:18:20;0.73;;;0.73;;
26906;SDS011;14472;56.880;16.658;2022-10-20T00:20:47;0.40;;;0.40;;
26906;SDS011;14472;56.880;16.658;2022-10-20T00:23:13;0.70;;;0.70;;
26906;SDS011;14472;56.880;16.658;2022-10-20T00:25:39;0.73;;;0.73;;
26906;SDS011;14472;56.880;16.658;2022-10-20T00:28:05;0.70;;;0.70;;
26906;SDS011;14472;56.880;16.658;2022-10-20T00:30:32;0.73;;;0.70;;
26906;SDS011;14472;56.880;16.658;2022-10-20T00:32:58;2.10;;;1.00;;
26906;SDS011;14472;56.880;16.658;2022-10-20T00:35:24;0.77;;;0.70;;
26906;SDS011;14472;56.880;16.658;2022-10-20T00:37:50;0.70;;;0.70;;
26906;SDS011;14472;56.880;16.658;2022-10-20T00:40:15;0.70;;;0.70;;
26906;SDS011;14472;56.880;16.658;2022-10-20T00:42:45;1.33;;;0.70;;
26906;SDS011;14472;56.880;16.658;2022-10-20T00:45:12;0.70;;;0.70;;
26906;SDS011;14472;56.880;16.658;2022-10-20T00:47:41;0.60;;;0.60;;
26906;SDS011;14472;56.880;16.658;2022-10-20T00:50:42;0.70;;;0.70;;
26906;SDS011;14472;56.880;16.658;2022-10-20T00:53:13;0.70;;;0.70;;
26906;SDS011;14472;56.880;16.658;2022-10-20T00:55:41;0.77;;;0.77;;
26906;SDS011;14472;56.880;16.658;2022-10-20T00:58:09;0.60;;;0.60;;
26906;SDS011;14472;56.880;16.658;2022-10-20T01:00:36;0.60;;;0.60;;
26906;SDS011;14472;56.880;16.658;2022-10-20T01:03:04;0.80;;;0.80;;
26906;SDS011;14472;56.880;16.658;2022-10-20T01:05:32;0.80;;;0.80;;
26906;SDS011;14472;56.880;16.658;2022-10-20T01:07:58;0.80;;;0.80;;
26906;SDS011;14472;56.880;16.658;2022-10-20T01:10:25;0.70;;;0.70;;
26906;SDS011;14472;56.880;16.658;2022-10-20T01:12:59;0.70;;;0.70;;
26906;SDS011;14472;56.880;16.658;2022-10-20T01:18:04;0.83;;;0.70;;
26906;SDS011;14472;56.880;16.658;2022-10-20T01:23:28;0.80;;;0.80;;
26906;SDS011;14472;56.880;16.658;2022-10-20T01:28:51;0.70;;;0.70;;
26906;SDS011;14472;56.880;16.658;2022-10-20T01:34:27;0.67;;;0.67;;
26906;SDS011;14472;56.880;16.658;2022-10-20T01:41:59;0.60;;;0.60;;
26906;SDS011;14472;56.880;16.658;2022-10-20T01:44:30;0.60;;;0.60;;
26906;SDS011;14472;56.880;16.658;2022-10-20T01:46:59;0.60;;;0.60;;
26906;SDS011;14472;56.880;16.658;2022-10-20T01:49:26;0.70;;;0.70;;
26906;SDS011;14472;56.880;16.658;2022-10-20T01:51:52;0.80;;;0.70;;
26906;SDS011;14472;56.880;16.658;2022-10-20T01:54:20;0.70;;;0.70;;
26906;SDS011;14472;56.880;16.658;2022-10-20T01:56:55;0.60;;;0.60;;
26906;SDS011;14472;56.880;16.658;2022-10-20T01:59:51;0.70;;;0.70;;
26906;SDS011;14472;56.880;16.658;2022-10-20T02:02:44;0.70;;;0.70;;
26906;SDS011;14472;56.880;16.658;2022-10-20T02:10:58;0.60;;;0.60;;
26906;SDS011;14472;56.880;16.658;2022-10-20T02:13:27;0.80;;;0.80;;
26906;SDS011;14472;56.880;16.658;2022-10-20T02:15:55;0.60;;;0.60;;
26906;SDS011;14472;56.880;16.658;2022-10-20T02:18:26;0.87;;;0.80;;
26906;SDS011;14472;56.880;16.658;2022-10-20T02:21:00;0.80;;;0.80;;
26906;SDS011;14472;56.880;16.658;2022-10-20T02:23:28;0.70;;;0.70;;
26906;SDS011;14472;56.880;16.658;2022-10-20T02:25:56;0.70;;;0.70;;
26906;SDS011;14472;56.880;16.658;2022-10-20T02:28:24;0.70;;;0.70;;
26906;SDS011;14472;56.880;16.658;2022-10-20T02:30:52;0.70;;;0.70;;
26906;SDS011;14472;56.880;16.658;2022-10-20T02:33:19;1.30;;;0.90;;
26906;SDS011;14472;56.880;16.658;2022-10-20T02:35:48;0.60;;;0.60;;
26906;SDS011;14472;56.880;16.658;2022-10-20T02:38:19;0.70;;;0.70;;
26906;SDS011;14472;56.880;16.658;2022-10-20T02:40:44;0.70;;;0.70;;
26906;SDS011;14472;56.880;16.658;2022-10-20T02:43:10;0.87;;;0.70;;
26906;SDS011;14472;56.880;16.658;2022-10-20T02:45:37;0.60;;;0.60;;
26906;SDS011;14472;56.880;16.658;2022-10-20T02:48:03;0.70;;;0.70;;
26906;SDS011;14472;56.880;16.658;2022-10-20T02:50:29;0.60;;;0.60;;
26906;SDS011;14472;56.880;16.658;2022-10-20T02:52:54;0.83;;;0.80;;
26906;SDS011;14472;56.880;16.658;2022-10-20T02:55:20;0.80;;;0.63;;
26906;SDS011;14472;56.880;16.658;2022-10-20T02:57:46;0.60;;;0.60;;
26906;SDS011;14472;56.880;16.658;2022-10-20T03:00:12;0.60;;;0.60;;
26906;SDS011;14472;56.880;16.658;2022-10-20T03:02:38;0.80;;;0.80;;
26906;SDS011;14472;56.880;16.658;2022-10-20T03:05:04;0.60;;;0.60;;
26906;SDS011;14472;56.880;16.658;2022-10-20T03:07:30;0.60;;;0.60;;
26906;SDS011;14472;56.880;16.658;2022-10-20T03:09:56;0.70;;;0.70;;
26906;SDS011;14472;56.880;16.658;2022-10-20T03:12:21;1.10;;;0.80;;
26906;SDS011;14472;56.880;16.658;2022-10-20T03:14:47;0.70;;;0.70;;
26906;SDS011;14472;56.880;16.658;2022-10-20T03:17:13;0.70;;;0.70;;
26906;SDS011;14472;56.880;16.658;2022-10-20T03:19:38;0.80;;;0.80;;
26906;SDS011;14472;56.880;16.658;2022-10-20T03:22:05;0.60;;;0.60;;
26906;SDS011;14472;56.880;16.658;2022-10-20T03:24:31;0.60;;;0.60;;
26906;SDS011;14472;56.880;16.658;2022-10-20T03:26:56;0.70;;;0.70;;
26906;SDS011;14472;56.880;16.658;2022-10-20T03:29:22;1.23;;;0.80;;
26906;SDS011;14472;56.880;16.658;2022-10-20T03:31:48;0.60;;;0.60;;
26906;SDS011;14472;56.880;16.658;2022-10-20T03:34:14;0.70;;;0.70;;
26906;SDS011;14472;56.880;16.658;2022-10-20T03:36:39;0.50;;;0.50;;
26906;SDS011;14472;56.880;16.658;2022-10-20T03:39:05;0.73;;;0.73;;
26906;SDS011;14472;56.880;16.658;2022-10-20T03:41:31;0.80;;;0.80;;
26906;SDS011;14472;56.880;16.658;2022-10-20T03:43:56;0.70;;;0.70;;
26906;SDS011;14472;56.880;16.658;2022-10-20T03:46:22;0.60;;;0.60;;
26906;SDS011;14472;56.880;16.658;2022-10-20T03:48:48;1.23;;;1.13;;
26906;SDS011;14472;56.880;16.658;2022-10-20T03:51:13;0.70;;;0.70;;
26906;SDS011;14472;56.880;16.658;2022-10-20T03:53:39;0.70;;;0.70;;
26906;SDS011;14472;56.880;16.658;2022-10-20T03:56:06;0.60;;;0.60;;
26906;SDS011;14472;56.880;16.658;2022-10-20T03:58:33;0.70;;;0.70;;
26906;SDS011;14472;56.880;16.658;2022-10-20T04:00:59;0.70;;;0.70;;
26906;SDS011;14472;56.880;16.658;2022-10-20T04:03:25;0.70;;;0.70;;
26906;SDS011;14472;56.880;16.658;2022-10-20T04:05:51;0.77;;;0.77;;
26906;SDS011;14472;56.880;16.658;2022-10-20T04:08:16;0.77;;;0.77;;
26906;SDS011;14472;56.880;16.658;2022-10-20T04:10:42;0.60;;;0.60;;
26906;SDS011;14472;56.880;16.658;2022-10-20T04:13:08;0.70;;;0.70;;
26906;SDS011;14472;56.880;16.658;2022-10-20T04:15:33;0.60;;;0.60;;
26906;SDS011;14472;56.880;16.658;2022-10-20T04:17:59;0.70;;;0.70;;
26906;SDS011;14472;56.880;16.658;2022-10-20T04:20:25;1.63;;;0.60;;
26906;SDS011;14472;56.880;16.658;2022-10-20T04:22:50;0.80;;;0.80;;
26906;SDS011;14472;56.880;16.658;2022-10-20T04:25:16;0.80;;;0.80;;
26906;SDS011;14472;56.880;16.658;2022-10-20T04:27:42;0.80;;;0.80;;
26906;SDS011;14472;56.880;16.658;2022-10-20T04:30:08;0.77;;;0.77;;
26906;SDS011;14472;56.880;16.658;2022-10-20T04:32:34;0.70;;;0.70;;
26906;SDS011;14472;56.880;16.658;2022-10-20T04:35:00;0.70;;;0.70;;
26906;SDS011;14472;56.880;16.658;2022-10-20T04:37:26;0.60;;;0.60;;
26906;SDS011;14472;56.880;16.658;2022-10-20T04:39:52;1.33;;;0.67;;
26906;SDS011;14472;56.880;16.658;2022-10-20T04:42:18;1.43;;;0.60;;
26906;SDS011;14472;56.880;16.658;2022-10-20T04:44:44;1.23;;;0.80;;
26906;SDS011;14472;56.880;16.658;2022-10-20T04:47:10;0.77;;;0.77;;
26906;SDS011;14472;56.880;16.658;2022-10-20T04:49:36;0.77;;;0.77;;
26906;SDS011;14472;56.880;16.658;2022-10-20T04:52:04;0.80;;;0.80;;
26906;SDS011;14472;56.880;16.658;2022-10-20T04:54:29;0.70;;;0.70;;
26906;SDS011;14472;56.880;16.658;2022-10-20T04:56:55;0.70;;;0.70;;
26906;SDS011;14472;56.880;16.658;2022-10-20T04:59:21;0.70;;;0.70;;
26906;SDS011;14472;56.880;16.658;2022-10-20T05:01:46;0.50;;;0.50;;
26906;SDS011;14472;56.880;16.658;2022-10-20T05:04:12;0.80;;;0.80;;
26906;SDS011;14472;56.880;16.658;2022-10-20T05:06:44;0.83;;;0.70;;
26906;SDS011;14472;56.880;16.658;2022-10-20T05:09:10;0.70;;;0.70;;
26906;SDS011;14472;56.880;16.658;2022-10-20T05:11:36;0.60;;;0.60;;
26906;SDS011;14472;56.880;16.658;2022-10-20T05:14:02;0.60;;;0.60;;
26906;SDS011;14472;56.880;16.658;2022-10-20T05:16:28;0.70;;;0.60;;
26906;SDS011;14472;56.880;16.658;2022-10-20T05:18:54;0.80;;;0.80;;
26906;SDS011;14472;56.880;16.658;2022-10-20T05:21:23;0.87;;;0.87;;
26906;SDS011;14472;56.880;16.658;2022-10-20T05:23:57;0.60;;;0.60;;
26906;SDS011;14472;56.880;16.658;2022-10-20T05:26:25;0.83;;;0.70;;
26906;SDS011;14472;56.880;16.658;2022-10-20T05:28:52;0.70;;;0.70;;
26906;SDS011;14472;56.880;16.658;2022-10-20T05:31:19;0.93;;;0.70;;
26906;SDS011;14472;56.880;16.658;2022-10-20T05:33:47;0.70;;;0.70;;
26906;SDS011;14472;56.880;16.658;2022-10-20T05:36:15;0.60;;;0.60;;
26906;SDS011;14472;56.880;16.658;2022-10-20T05:38:43;1.43;;;0.70;;
26906;SDS011;14472;56.880;16.658;2022-10-20T05:41:16;0.70;;;0.70;;
26906;SDS011;14472;56.880;16.658;2022-10-20T05:43:47;0.70;;;0.70;;
26906;SDS011;14472;56.880;16.658;2022-10-20T05:46:14;0.80;;;0.80;;
26906;SDS011;14472;56.880;16.658;2022-10-20T05:48:40;0.87;;;0.87;;
26906;SDS011;14472;56.880;16.658;2022-10-20T05:51:07;0.70;;;0.70;;
26906;SDS011;14472;56.880;16.658;2022-10-20T05:53:37;0.80;;;0.80;;
26906;SDS011;14472;56.880;16.658;2022-10-20T05:56:07;1.20;;;0.70;;
26906;SDS011;14472;56.880;16.658;2022-10-20T05:58:34;0.83;;;0.60;;
26906;SDS011;14472;56.880;16.658;2022-10-20T06:01:06;0.70;;;0.70;;
26906;SDS011;14472;56.880;16.658;2022-10-20T06:03:35;1.50;;;0.60;;
26906;SDS011;14472;56.880;16.658;2022-10-20T06:06:02;0.97;;;0.80;;
26906;SDS011;14472;56.880;16.658;2022-10-20T06:08:29;0.63;;;0.60;;
26906;SDS011;14472;56.880;16.658;2022-10-20T06:11:02;0.60;;;0.60;;
26906;SDS011;14472;56.880;16.658;2022-10-20T06:13:31;0.70;;;0.70;;
26906;SDS011;14472;56.880;16.658;2022-10-20T06:16:04;0.60;;;0.60;;
26906;SDS011;14472;56.880;16.658;2022-10-20T06:18:34;0.70;;;0.70;;
26906;SDS011;14472;56.880;16.658;2022-10-20T06:21:06;0.50;;;0.50;;
26906;SDS011;14472;56.880;16.658;2022-10-20T06:23:34;0.60;;;0.60;;
26906;SDS011;14472;56.880;16.658;2022-10-20T06:26:01;1.07;;;0.80;;
26906;SDS011;14472;56.880;16.658;2022-10-20T06:28:31;0.73;;;0.70;;
26906;SDS011;14472;56.880;16.658;2022-10-20T06:30:58;0.93;;;0.80;;
26906;SDS011;14472;56.880;16.658;2022-10-20T06:33:25;0.70;;;0.70;;
26906;SDS011;14472;56.880;16.658;2022-10-20T06:35:57;0.93;;;0.80;;
26906;SDS011;14472;56.880;16.658;2022-10-20T06:38:25;0.70;;;0.70;;
26906;SDS011;14472;56.880;16.658;2022-10-20T06:40:51;0.67;;;0.63;;
26906;SDS011;14472;56.880;16.658;2022-10-20T06:43:16;0.97;;;0.67;;
26906;SDS011;14472;56.880;16.658;2022-10-20T06:45:42;0.70;;;0.70;;
26906;SDS011;14472;56.880;16.658;2022-10-20T06:48:08;0.63;;;0.63;;
26906;SDS011;14472;56.880;16.658;2022-10-20T06:50:33;0.60;;;0.60;;
26906;SDS011;14472;56.880;16.658;2022-10-20T06:52:59;0.60;;;0.60;;
26906;SDS011;14472;56.880;16.658;2022-10-20T06:55:25;0.73;;;0.73;;
26906;SDS011;14472;56.880;16.658;2022-10-20T06:57:50;0.80;;;0.80;;
26906;SDS011;14472;56.880;16.658;2022-10-20T07:00:16;0.57;;;0.57;;
26906;SDS011;14472;56.880;16.658;2022-10-20T07:02:42;0.90;;;0.90;;
26906;SDS011;14472;56.880;16.658;2022-10-20T07:05:07;0.60;;;0.60;;
26906;SDS011;14472;56.880;16.658;2022-10-20T07:07:33;0.70;;;0.70;;
26906;SDS011;14472;56.880;16.658;2022-10-20T07:09:59;0.63;;;0.63;;
26906;SDS011;14472;56.880;16.658;2022-10-20T07:12:25;2.00;;;0.70;;
26906;SDS011;14472;56.880;16.658;2022-10-20T07:14:50;1.23;;;0.80;;
26906;SDS011;14472;56.880;16.658;2022-10-20T07:17:16;0.70;;;0.70;;
26906;SDS011;14472;56.880;16.658;2022-10-20T07:19:42;0.70;;;0.70;;
26906;SDS011;14472;56.880;16.658;2022-10-20T07:22:07;0.70;;;0.70;;
26906;SDS011;14472;56.880;16.658;2022-10-20T07:24:33;0.80;;;0.70;;
26906;SDS011;14472;56.880;16.658;2022-10-20T07:26:59;0.70;;;0.70;;
26906;SDS011;14472;56.880;16.658;2022-10-20T07:29:24;0.60;;;0.60;;
26906;SDS011;14472;56.880;16.658;2022-10-20T07:31:50;0.77;;;0.77;;
26906;SDS011;14472;56.880;16.658;2022-10-20T07:34:16;0.70;;;0.70;;
26906;SDS011;14472;56.880;16.658;2022-10-20T07:36:44;0.70;;;0.70;;
26906;SDS011;14472;56.880;16.658;2022-10-20T07:39:11;0.60;;;0.60;;
26906;SDS011;14472;56.880;16.658;2022-10-20T07:41:37;0.50;;;0.50;;
26906;SDS011;14472;56.880;16.658;2022-10-20T07:44:03;0.70;;;0.70;;
26906;SDS011;14472;56.880;16.658;2022-10-20T07:46:29;0.70;;;0.70;;
26906;SDS011;14472;56.880;16.658;2022-10-20T07:48:55;0.90;;;0.70;;
26906;SDS011;14472;56.880;16.658;2022-10-20T07:53:53;0.70;;;0.70;;
26906;SDS011;14472;56.880;16.658;2022-10-20T07:56:22;0.60;;;0.60;;
26906;SDS011;14472;56.880;16.658;2022-10-20T07:58:48;0.60;;;0.60;;
26906;SDS011;14472;56.880;16.658;2022-10-20T08:01:14;0.73;;;0.73;;
26906;SDS011;14472;56.880;16.658;2022-10-20T08:03:40;0.70;;;0.70;;
26906;SDS011;14472;56.880;16.658;2022-10-20T08:06:06;0.60;;;0.60;;
26906;SDS011;14472;56.880;16.658;2022-10-20T08:08:32;0.73;;;0.63;;
26906;SDS011;14472;56.880;16.658;2022-10-20T08:10:58;0.77;;;0.77;;
26906;SDS011;14472;56.880;16.658;2022-10-20T08:13:24;0.87;;;0.70;;
26906;SDS011;14472;56.880;16.658;2022-10-20T08:15:51;0.93;;;0.63;;
26906;SDS011;14472;56.880;16.658;2022-10-20T08:18:16;0.60;;;0.60;;
26906;SDS011;14472;56.880;16.658;2022-10-20T08:20:42;0.70;;;0.70;;
26906;SDS011;14472;56.880;16.658;2022-10-20T08:23:09;0.70;;;0.70;;
26906;SDS011;14472;56.880;16.658;2022-10-20T08:25:38;1.70;;;1.00;;
26906;SDS011;14472;56.880;16.658;2022-10-20T08:28:05;0.70;;;0.70;;
26906;SDS011;14472;56.880;16.658;2022-10-20T08:30:31;1.53;;;0.60;;
26906;SDS011;14472;56.880;16.658;2022-10-20T08:32:57;0.70;;;0.70;;
26906;SDS011;14472;56.880;16.658;2022-10-20T08:35:23;0.70;;;0.70;;
26906;SDS011;14472;56.880;16.658;2022-10-20T08:37:49;0.70;;;0.70;;
26906;SDS011;14472;56.880;16.658;2022-10-20T08:40:19;3.43;;;0.87;;
26906;SDS011;14472;56.880;16.658;2022-10-20T08:42:50;0.60;;;0.60;;
26906;SDS011;14472;56.880;16.658;2022-10-20T08:45:18;0.60;;;0.60;;
26906;SDS011;14472;56.880;16.658;2022-10-20T08:47:46;0.70;;;0.60;;
26906;SDS011;14472;56.880;16.658;2022-10-20T08:50:14;0.50;;;0.50;;
26906;SDS011;14472;56.880;16.658;2022-10-20T08:52:42;0.70;;;0.60;;
26906;SDS011;14472;56.880;16.658;2022-10-20T08:55:18;0.77;;;0.70;;
26906;SDS011;14472;56.880;16.658;2022-10-20T08:57:51;0.97;;;0.70;;
26906;SDS011;14472;56.880;16.658;2022-10-20T09:00:35;0.60;;;0.60;;
26906;SDS011;14472;56.880;16.658;2022-10-20T09:03:09;1.90;;;1.03;;
26906;SDS011;14472;56.880;16.658;2022-10-20T09:05:42;0.60;;;0.60;;
26906;SDS011;14472;56.880;16.658;2022-10-20T09:08:11;0.60;;;0.60;;
26906;SDS011;14472;56.880;16.658;2022-10-20T09:10:44;0.70;;;0.70;;
26906;SDS011;14472;56.880;16.658;2022-10-20T09:13:17;2.43;;;0.70;;
26906;SDS011;14472;56.880;16.658;2022-10-20T09:15:53;0.60;;;0.60;;
26906;SDS011;14472;56.880;16.658;2022-10-20T09:18:22;0.70;;;0.70;;
26906;SDS011;14472;56.880;16.658;2022-10-20T09:20:52;1.03;;;0.80;;
26906;SDS011;14472;56.880;16.658;2022-10-20T09:23:23;1.03;;;0.90;;
26906;SDS011;14472;56.880;16.658;2022-10-20T09:25:55;1.20;;;1.10;;
26906;SDS011;14472;56.880;16.658;2022-10-20T09:28:22;1.90;;;1.70;;
26906;SDS011;14472;56.880;16.658;2022-10-20T09:30:50;1.63;;;1.13;;
26906;SDS011;14472;56.880;16.658;2022-10-20T09:33:27;1.13;;;0.90;;
26906;SDS011;14472;56.880;16.658;2022-10-20T09:36:03;0.80;;;0.80;;
26906;SDS011;14472;56.880;16.658;2022-10-20T09:38:40;0.67;;;0.67;;
26906;SDS011;14472;56.880;16.658;2022-10-20T09:41:18;1.33;;;1.10;;
26906;SDS011;14472;56.880;16.658;2022-10-20T09:43:52;0.70;;;0.70;;
26906;SDS011;14472;56.880;16.658;2022-10-20T09:46:22;0.63;;;0.63;;
26906;SDS011;14472;56.880;16.658;2022-10-20T09:48:51;0.60;;;0.60;;
26906;SDS011;14472;56.880;16.658;2022-10-20T09:51:18;0.80;;;0.80;;
26906;SDS011;14472;56.880;16.658;2022-10-20T09:53:54;2.60;;;0.60;;
26906;SDS011;14472;56.880;16.658;2022-10-20T09:56:25;1.70;;;0.70;;
26906;SDS011;14472;56.880;16.658;2022-10-20T09:58:59;1.00;;;0.70;;
26906;SDS011;14472;56.880;16.658;2022-10-20T10:01:27;0.50;;;0.50;;
26906;SDS011;14472;56.880;16.658;2022-10-20T10:03:53;0.60;;;0.60;;
26906;SDS011;14472;56.880;16.658;2022-10-20T10:06:26;1.80;;;0.60;;
26906;SDS011;14472;56.880;16.658;2022-10-20T10:08:54;1.10;;;0.70;;
26906;SDS011;14472;56.880;16.658;2022-10-20T10:11:22;0.93;;;0.70;;
26906;SDS011;14472;56.880;16.658;2022-10-20T10:13:57;1.13;;;0.70;;
26906;SDS011;14472;56.880;16.658;2022-10-20T10:16:24;0.60;;;0.60;;
26906;SDS011;14472;56.880;16.658;2022-10-20T10:18:56;1.43;;;0.70;;
26906;SDS011;14472;56.880;16.658;2022-10-20T10:21:28;0.50;;;0.50;;
26906;SDS011;14472;56.880;16.658;2022-10-20T10:24:05;0.87;;;0.73;;
26906;SDS011;14472;56.880;16.658;2022-10-20T10:26:51;0.77;;;0.50;;
26906;SDS011;14472;56.880;16.658;2022-10-20T10:29:23;0.60;;;0.60;;
26906;SDS011;14472;56.880;16.658;2022-10-20T10:32:34;2.10;;;0.57;;
26906;SDS011;14472;56.880;16.658;2022-10-20T10:37:34;1.30;;;0.60;;
26906;SDS011;14472;56.880;16.658;2022-10-20T10:40:04;0.50;;;0.50;;
26906;SDS011;14472;56.880;16.658;2022-10-20T10:43:29;0.83;;;0.50;;
26906;SDS011;14472;56.880;16.658;2022-10-20T11:00:28;0.70;;;0.60;;
26906;SDS011;14472;56.880;16.658;2022-10-20T11:03:00;0.63;;;0.63;;
26906;SDS011;14472;56.880;16.658;2022-10-20T11:24:05;0.70;;;0.70;;
26906;SDS011;14472;56.880;16.658;2022-10-20T11:26:50;0.83;;;0.60;;
26906;SDS011;14472;56.880;16.658;2022-10-20T11:42:43;1.77;;;0.70;;
26906;SDS011;14472;56.880;16.658;2022-10-20T11:45:36;0.60;;;0.60;;
26906;SDS011;14472;56.880;16.658;2022-10-20T11:48:22;1.50;;;0.67;;
26906;SDS011;14472;56.880;16.658;2022-10-20T12:14:11;0.63;;;0.60;;
26906;SDS011;14472;56.880;16.658;2022-10-20T12:19:23;0.63;;;0.60;;
26906;SDS011;14472;56.880;16.658;2022-10-20T12:22:04;1.13;;;0.67;;
26906;SDS011;14472;56.880;16.658;2022-10-20T12:24:40;0.80;;;0.60;;
26906;SDS011;14472;56.880;16.658;2022-10-20T12:34:51;0.50;;;0.50;;
26906;SDS011;14472;56.880;16.658;2022-10-20T12:37:23;0.70;;;0.70;;
26906;SDS011;14472;56.880;16.658;2022-10-20T12:39:53;1.70;;;0.60;;
26906;SDS011;14472;56.880;16.658;2022-10-20T12:44:47;0.53;;;0.50;;
26906;SDS011;14472;56.880;16.658;2022-10-20T12:50:01;1.00;;;0.60;;
26906;SDS011;14472;56.880;16.658;2022-10-20T12:52:36;0.70;;;0.60;;
26906;SDS011;14472;56.880;16.658;2022-10-20T12:55:13;0.70;;;0.70;;
26906;SDS011;14472;56.880;16.658;2022-10-20T13:09:10;0.50;;;0.50;;
26906;SDS011;14472;56.880;16.658;2022-10-20T13:11:57;0.73;;;0.67;;
26906;SDS011;14472;56.880;16.658;2022-10-20T13:14:41;0.70;;;0.70;;
26906;SDS011;14472;56.880;16.658;2022-10-20T13:17:16;0.80;;;0.80;;
26906;SDS011;14472;56.880;16.658;2022-10-20T13:19:48;0.70;;;0.70;;
26906;SDS011;14472;56.880;16.658;2022-10-20T13:24:57;1.60;;;0.60;;
26906;SDS011;14472;56.880;16.658;2022-10-20T13:27:26;0.93;;;0.57;;
26906;SDS011;14472;56.880;16.658;2022-10-20T13:29:53;0.60;;;0.60;;
26906;SDS011;14472;56.880;16.658;2022-10-20T13:35:18;1.17;;;0.80;;
26906;SDS011;14472;56.880;16.658;2022-10-20T13:45:49;0.70;;;0.70;;
26906;SDS011;14472;56.880;16.658;2022-10-20T13:51:20;1.33;;;0.50;;
26906;SDS011;14472;56.880;16.658;2022-10-20T13:53:54;0.87;;;0.70;;
26906;SDS011;14472;56.880;16.658;2022-10-20T13:57:12;0.60;;;0.60;;
26906;SDS011;14472;56.880;16.658;2022-10-20T14:01:38;1.53;;;0.63;;
26906;SDS011;14472;56.880;16.658;2022-10-20T14:04:24;1.33;;;0.70;;
26906;SDS011;14472;56.880;16.658;2022-10-20T14:06:52;0.67;;;0.60;;
26906;SDS011;14472;56.880;16.658;2022-10-20T14:09:20;0.60;;;0.60;;
26906;SDS011;14472;56.880;16.658;2022-10-20T14:12:30;0.90;;;0.80;;
26906;SDS011;14472;56.880;16.658;2022-10-20T14:14:45;0.83;;;0.63;;
26906;SDS011;14472;56.880;16.658;2022-10-20T14:17:16;0.60;;;0.60;;
26906;SDS011;14472;56.880;16.658;2022-10-20T14:19:44;0.60;;;0.60;;
26906;SDS011;14472;56.880;16.658;2022-10-20T14:24:44;0.83;;;0.60;;
26906;SDS011;14472;56.880;16.658;2022-10-20T14:27:25;0.60;;;0.60;;
26906;SDS011;14472;56.880;16.658;2022-10-20T14:29:54;0.77;;;0.77;;
26906;SDS011;14472;56.880;16.658;2022-10-20T14:32:37;0.70;;;0.70;;
26906;SDS011;14472;56.880;16.658;2022-10-20T14:37:55;0.50;;;0.50;;
26906;SDS011;14472;56.880;16.658;2022-10-20T14:40:30;0.60;;;0.60;;
26906;SDS011;14472;56.880;16.658;2022-10-20T14:43:17;1.43;;;0.50;;
26906;SDS011;14472;56.880;16.658;2022-10-20T14:45:53;0.60;;;0.60;;
26906;SDS011;14472;56.880;16.658;2022-10-20T14:48:21;1.80;;;0.80;;
26906;SDS011;14472;56.880;16.658;2022-10-20T14:50:49;1.33;;;0.60;;
26906;SDS011;14472;56.880;16.658;2022-10-20T14:53:27;0.67;;;0.67;;
26906;SDS011;14472;56.880;16.658;2022-10-20T14:55:56;1.13;;;0.80;;
26906;SDS011;14472;56.880;16.658;2022-10-20T14:58:30;0.90;;;0.70;;
26906;SDS011;14472;56.880;16.658;2022-10-20T15:03:42;0.60;;;0.60;;
26906;SDS011;14472;56.880;16.658;2022-10-20T15:06:09;1.10;;;0.73;;
26906;SDS011;14472;56.880;16.658;2022-10-20T15:08:37;3.60;;;3.33;;
26906;SDS011;14472;56.880;16.658;2022-10-20T15:11:15;2.43;;;2.23;;
26906;SDS011;14472;56.880;16.658;2022-10-20T15:13:49;1.90;;;1.20;;
26906;SDS011;14472;56.880;16.658;2022-10-20T15:19:33;0.80;;;0.80;;
26906;SDS011;14472;56.880;16.658;2022-10-20T15:21:59;0.70;;;0.70;;
26906;SDS011;14472;56.880;16.658;2022-10-20T15:24:31;1.03;;;0.60;;
26906;SDS011;14472;56.880;16.658;2022-10-20T15:26:57;0.93;;;0.73;;
26906;SDS011;14472;56.880;16.658;2022-10-20T15:29:24;1.30;;;1.20;;
26906;SDS011;14472;56.880;16.658;2022-10-20T15:31:51;1.83;;;1.67;;
26906;SDS011;14472;56.880;16.658;2022-10-20T15:34:17;1.40;;;1.30;;
26906;SDS011;14472;56.880;16.658;2022-10-20T15:36:44;3.30;;;1.50;;
26906;SDS011;14472;56.880;16.658;2022-10-20T15:39:10;4.33;;;2.10;;
26906;SDS011;14472;56.880;16.658;2022-10-20T15:41:36;2.50;;;2.30;;
26906;SDS011;14472;56.880;16.658;2022-10-20T15:46:36;2.03;;;1.83;;
26906;SDS011;14472;56.880;16.658;2022-10-20T15:49:02;2.97;;;2.20;;
26906;SDS011;14472;56.880;16.658;2022-10-20T15:51:28;2.93;;;2.67;;
26906;SDS011;14472;56.880;16.658;2022-10-20T15:53:56;2.53;;;2.33;;
26906;SDS011;14472;56.880;16.658;2022-10-20T15:56:22;3.27;;;2.40;;
26906;SDS011;14472;56.880;16.658;2022-10-20T15:58:48;2.00;;;1.87;;
26906;SDS011;14472;56.880;16.658;2022-10-20T16:01:14;5.70;;;5.17;;
26906;SDS011;14472;56.880;16.658;2022-10-20T16:03:43;4.93;;;3.90;;
26906;SDS011;14472;56.880;16.658;2022-10-20T16:06:10;3.73;;;3.00;;
26906;SDS011;14472;56.880;16.658;2022-10-20T16:08:37;5.33;;;4.43;;
26906;SDS011;14472;56.880;16.658;2022-10-20T16:11:04;3.63;;;3.33;;
26906;SDS011;14472;56.880;16.658;2022-10-20T16:13:31;5.53;;;4.70;;
26906;SDS011;14472;56.880;16.658;2022-10-20T16:15:57;6.10;;;5.50;;
26906;SDS011;14472;56.880;16.658;2022-10-20T16:18:23;4.20;;;3.80;;
26906;SDS011;14472;56.880;16.658;2022-10-20T16:20:49;2.50;;;2.20;;
26906;SDS011;14472;56.880;16.658;2022-10-20T16:23:15;1.80;;;1.70;;
26906;SDS011;14472;56.880;16.658;2022-10-20T16:25:41;1.30;;;1.10;;
26906;SDS011;14472;56.880;16.658;2022-10-20T16:28:07;1.30;;;1.23;;
26906;SDS011;14472;56.880;16.658;2022-10-20T16:30:36;2.83;;;1.60;;
26906;SDS011;14472;56.880;16.658;2022-10-20T16:33:02;1.63;;;1.43;;
26906;SDS011;14472;56.880;16.658;2022-10-20T16:35:27;2.00;;;1.90;;
26906;SDS011;14472;56.880;16.658;2022-10-20T16:37:53;1.40;;;1.30;;
26906;SDS011;14472;56.880;16.658;2022-10-20T16:40:19;1.50;;;1.40;;
26906;SDS011;14472;56.880;16.658;2022-10-20T16:42:44;1.93;;;1.60;;
26906;SDS011;14472;56.880;16.658;2022-10-20T16:45:10;1.70;;;1.60;;
26906;SDS011;14472;56.880;16.658;2022-10-20T16:47:36;2.10;;;1.73;;
26906;SDS011;14472;56.880;16.658;2022-10-20T16:50:02;2.70;;;2.50;;
26906;SDS011;14472;56.880;16.658;2022-10-20T16:52:28;2.77;;;2.57;;
26906;SDS011;14472;56.880;16.658;2022-10-20T16:54:54;2.63;;;2.43;;
26906;SDS011;14472;56.880;16.658;2022-10-20T16:57:19;3.73;;;2.67;;
26906;SDS011;14472;56.880;16.658;2022-10-20T16:59:45;1.43;;;1.30;;
26906;SDS011;14472;56.880;16.658;2022-10-20T17:02:14;1.03;;;1.03;;
26906;SDS011;14472;56.880;16.658;2022-10-20T17:04:42;1.20;;;1.10;;
26906;SDS011;14472;56.880;16.658;2022-10-20T17:07:17;1.70;;;1.60;;
26906;SDS011;14472;56.880;16.658;2022-10-20T17:09:42;1.90;;;1.30;;
26906;SDS011;14472;56.880;16.658;2022-10-20T17:12:09;0.90;;;0.90;;
26906;SDS011;14472;56.880;16.658;2022-10-20T17:14:34;1.07;;;1.00;;
26906;SDS011;14472;56.880;16.658;2022-10-20T17:17:00;2.00;;;1.10;;
26906;SDS011;14472;56.880;16.658;2022-10-20T17:19:26;1.90;;;0.90;;
26906;SDS011;14472;56.880;16.658;2022-10-20T17:21:51;2.60;;;0.90;;